This is the latest recevied weather packets stored in our database for station/object KC3JUG-3. If no packets are shown the sender has not sent any weather packets the latest 10 day(s).
| Time | Temp. | Humidity | Pressure | Rain* | Wind** | Luminosity | Snow |
|---|---|---|---|---|---|---|---|
| 1777743647 | 12.22° C | 53% | 1014.2 hPa | 0 mm | - | - | - |
| 1777742161 | 11.11° C | 52% | 1014.5 hPa | 0 mm | - | - | - |
| 1777741851 | 11.11° C | 52% | 1014.4 hPa | 0 mm | - | - | - |
| 1777741547 | 11.11° C | 53% | 1014.4 hPa | 0 mm | - | - | - |
| 1777740949 | 11.67° C | 52% | 1014.4 hPa | 0 mm | - | - | - |
| 1777739458 | 10.56° C | 59% | 1014.5 hPa | 0 mm | - | - | - |
| 1777737650 | 10.56° C | 61% | 1015 hPa | 0 mm | - | - | - |
| 1777736751 | 10° C | 64% | 1015 hPa | 0 mm | - | - | - |
| 1777735846 | 10.56° C | 63% | 1014.9 hPa | 0 mm | - | - | - |
| 1777735547 | 10.56° C | 64% | 1015.1 hPa | 0 mm | - | - | - |
| 1777734647 | 10° C | 67% | 1014.9 hPa | 0 mm | - | - | - |
| 1777734347 | 9.44° C | 66% | 1015 hPa | 0 mm | - | - | - |
| 1777727760 | 7.78° C | 78% | 1015 hPa | 0 mm | - | - | - |
| 1777724748 | 6.67° C | 86% | 1014.9 hPa | 0 mm | - | - | - |
| 1777721147 | 6.11° C | 89% | 1014.7 hPa | 0 mm | - | - | - |
| 1777720247 | 6.11° C | 89% | 1014.7 hPa | 0 mm | - | - | - |
| 1777719653 | 6.11° C | 89% | 1014.8 hPa | 0 mm | - | - | - |
| 1777719050 | 6.11° C | 88% | 1014.5 hPa | 0 mm | - | - | - |
| 1777718447 | 6.67° C | 87% | 1014.4 hPa | 0 mm | - | - | - |
| 1777717247 | 7.22° C | 89% | 1014.2 hPa | 0 mm | - | - | - |
| 1777716347 | 7.78° C | 89% | 1013.9 hPa | 0 mm | - | - | - |
| 1777715749 | 7.78° C | 90% | 1013.9 hPa | 0 mm | - | - | - |
| 1777715148 | 7.78° C | 90% | 1013.7 hPa | 0 mm | - | - | - |
| 1777714847 | 7.78° C | 90% | 1013.6 hPa | 0 mm | - | - | - |
| 1777714547 | 7.78° C | 90% | 1013.6 hPa | 0 mm | - | - | - |
* Rain latest hour (hover to see other rain measurements)
** Current wind speed in m/s (hover to see current wind gust speed)